createdAt,value
2022-08-24T00:00:32.774Z,98657.72
2022-08-24T00:05:40.075Z,98652.28
2022-08-24T00:10:44.904Z,98652.00
2022-08-24T00:15:50.182Z,98654.09
2022-08-24T00:20:57.780Z,98658.03
2022-08-24T00:26:02.909Z,98663.22
2022-08-24T00:31:08.165Z,98662.09
2022-08-24T00:36:15.903Z,98668.69
2022-08-24T00:41:21.519Z,98671.13
2022-08-24T00:46:29.830Z,98676.28
2022-08-24T00:51:42.162Z,98679.31
2022-08-24T00:56:51.471Z,98684.47
2022-08-24T01:01:59.137Z,98682.88
2022-08-24T01:07:13.478Z,98680.72
2022-08-24T01:12:18.906Z,98682.69
2022-08-24T01:17:38.769Z,98689.69
2022-08-24T01:23:08.333Z,98690.94
2022-08-24T01:28:25.180Z,98701.69
2022-08-24T01:33:34.388Z,98697.66
2022-08-24T01:38:39.257Z,98691.09
2022-08-24T01:43:46.459Z,98686.91
2022-08-24T01:48:51.191Z,98693.09
2022-08-24T01:53:55.882Z,98693.81
2022-08-24T01:59:03.541Z,98690.78
2022-08-24T02:04:10.180Z,98690.31
2022-08-24T02:09:16.244Z,98692.75
2022-08-24T02:14:23.490Z,98693.31
2022-08-24T02:19:31.559Z,98692.81
2022-08-24T02:24:36.950Z,98687.94
2022-08-24T02:29:44.263Z,98687.31
2022-08-24T02:34:48.857Z,98682.41
2022-08-24T02:39:54.091Z,98682.78
2022-08-24T02:45:03.702Z,98689.41
2022-08-24T02:50:10.538Z,98689.13
2022-08-24T02:55:19.965Z,98687.44
2022-08-24T03:00:28.307Z,98700.88
2022-08-24T03:05:34.456Z,98704.34
2022-08-24T03:10:39.637Z,98720.06
2022-08-24T03:15:48.003Z,98716.03
2022-08-24T03:20:52.784Z,98716.41
2022-08-24T03:25:58.449Z,98714.72
2022-08-24T03:31:05.845Z,98711.69
2022-08-24T03:36:14.318Z,98717.47
2022-08-24T03:41:19.676Z,98722.78
2022-08-24T03:46:30.834Z,98721.28
2022-08-24T03:51:35.617Z,98718.44
2022-08-24T03:56:40.342Z,98722.50
2022-08-24T04:01:47.889Z,98717.63
2022-08-24T04:06:52.869Z,98717.50
2022-08-24T04:11:57.917Z,98737.00
2022-08-24T04:17:07.377Z,98732.78
2022-08-24T04:22:17.555Z,98733.28
2022-08-24T04:27:22.132Z,98747.06
2022-08-24T04:32:29.323Z,98752.63
2022-08-24T04:37:33.951Z,98762.63
2022-08-24T04:42:39.178Z,98763.47
2022-08-24T04:47:46.907Z,98768.53
2022-08-24T04:52:51.932Z,98771.91
2022-08-24T04:57:56.610Z,98778.69
2022-08-24T05:03:04.135Z,98782.91
2022-08-24T05:08:09.231Z,98785.28
2022-08-24T05:13:14.812Z,98792.69
2022-08-24T05:18:23.073Z,98794.03
2022-08-24T05:23:30.224Z,98804.16
2022-08-24T05:28:35.575Z,98807.00
2022-08-24T05:33:43.866Z,98803.59
2022-08-24T05:38:51.208Z,98805.41
2022-08-24T05:43:57.023Z,98807.09
2022-08-24T05:49:04.644Z,98804.13
2022-08-24T05:54:11.852Z,98812.28
2022-08-24T05:59:28.516Z,98819.13
2022-08-24T06:04:38.553Z,98817.91
2022-08-24T06:09:45.563Z,98815.78
2022-08-24T06:14:50.644Z,98819.75
2022-08-24T06:20:02.729Z,98821.84
2022-08-24T06:25:22.097Z,98818.53
2022-08-24T06:30:30.743Z,98817.72
2022-08-24T06:35:38.366Z,98808.94
2022-08-24T06:40:44.084Z,98818.16
2022-08-24T06:45:49.694Z,98822.78
2022-08-24T06:50:59.856Z,98818.81
2022-08-24T06:56:05.544Z,98817.41
2022-08-24T07:01:12.638Z,98822.28
2022-08-24T07:06:20.783Z,98815.19
2022-08-24T07:11:25.831Z,98811.69
2022-08-24T07:16:31.478Z,98802.00
2022-08-24T07:21:42.643Z,98801.63
2022-08-24T07:26:48.195Z,98800.34
2022-08-24T07:31:53.716Z,98803.25
2022-08-24T07:37:09.155Z,98806.16
2022-08-24T07:42:25.383Z,98802.28
2022-08-24T07:47:39.030Z,98807.25
2022-08-24T07:52:57.368Z,98800.63
2022-08-24T07:58:02.305Z,98812.66
2022-08-24T08:03:08.080Z,98817.06
2022-08-24T08:08:16.830Z,98818.78
2022-08-24T08:13:22.478Z,98814.94
2022-08-24T08:18:34.012Z,98806.81
2022-08-24T08:23:58.572Z,98812.63
2022-08-24T08:29:10.626Z,98799.75
2022-08-24T08:34:16.392Z,98793.84
2022-08-24T08:39:25.978Z,98795.22
2022-08-24T08:44:53.471Z,98793.16
2022-08-24T08:50:16.567Z,98798.50
2022-08-24T08:55:35.650Z,98780.06
2022-08-24T09:00:55.534Z,98790.88
2022-08-24T09:06:13.107Z,98787.34
2022-08-24T09:11:32.522Z,98783.69
2022-08-24T09:16:53.435Z,98791.28
2022-08-24T09:22:11.731Z,98783.53
2022-08-24T09:27:32.747Z,98779.97
2022-08-24T09:32:44.985Z,98776.75
2022-08-24T09:38:02.629Z,98773.97
2022-08-24T09:43:45.486Z,98772.91
2022-08-24T09:49:20.704Z,98772.84
2022-08-24T09:54:58.205Z,98771.97
2022-08-24T10:00:18.670Z,98772.84
2022-08-24T10:05:36.357Z,98771.59
2022-08-24T10:10:54.640Z,98765.81
2022-08-24T10:16:19.647Z,98765.69
2022-08-24T10:21:39.247Z,98764.69
2022-08-24T10:27:04.904Z,98755.53
2022-08-24T10:32:25.019Z,98741.16
2022-08-24T10:38:20.459Z,98740.63
2022-08-24T10:43:59.470Z,98742.31
2022-08-24T10:49:34.622Z,98736.44
2022-08-24T10:54:42.441Z,98729.94
2022-08-24T10:59:58.435Z,98728.56
2022-08-24T11:05:05.913Z,98733.31
2022-08-24T11:10:13.411Z,98745.25
2022-08-24T11:15:28.077Z,98739.22
2022-08-24T11:20:36.572Z,98735.88
2022-08-24T11:25:54.437Z,98732.13
2022-08-24T11:30:59.298Z,98739.22
2022-08-24T11:36:05.694Z,98736.72
2022-08-24T11:41:19.459Z,98736.84
2022-08-24T11:46:32.164Z,98739.66
2022-08-24T11:51:44.061Z,98737.34
2022-08-24T11:57:04.707Z,98724.66
2022-08-24T12:02:20.512Z,98728.13
2022-08-24T12:07:37.382Z,98732.75
2022-08-24T12:12:49.984Z,98718.94
2022-08-24T12:18:02.873Z,98718.22
2022-08-24T12:23:14.518Z,98726.88
2022-08-24T12:28:27.296Z,98715.38
2022-08-24T12:33:37.634Z,98708.50
2022-08-24T12:38:47.638Z,98709.13
2022-08-24T12:43:58.645Z,98703.16
2022-08-24T12:49:07.814Z,98707.38
2022-08-24T12:54:29.324Z,98716.31
2022-08-24T12:59:41.903Z,98711.50
2022-08-24T13:04:59.368Z,98712.94
2022-08-24T13:10:16.558Z,98705.81
2022-08-24T13:16:00.912Z,98706.66
2022-08-24T13:21:18.366Z,98714.44
2022-08-24T13:26:29.370Z,98705.03
2022-08-24T13:31:43.518Z,98701.09
2022-08-24T13:36:56.482Z,98704.97
2022-08-24T13:42:14.637Z,98702.13
2022-08-24T13:47:27.751Z,98692.03
2022-08-24T13:52:45.178Z,98688.03
2022-08-24T13:58:05.433Z,98688.28
2022-08-24T14:03:29.414Z,98693.16
2022-08-24T14:08:46.689Z,98690.25
2022-08-24T14:14:05.870Z,98687.34
2022-08-24T14:19:23.450Z,98685.09
2022-08-24T14:24:34.144Z,98670.28
2022-08-24T14:29:42.250Z,98676.34
2022-08-24T14:35:01.335Z,98677.38
2022-08-24T14:40:18.086Z,98678.25
2022-08-24T14:45:26.055Z,98674.06
2022-08-24T14:50:38.794Z,98678.75
2022-08-24T14:55:51.248Z,98665.72
2022-08-24T15:01:15.206Z,98663.75
2022-08-24T15:06:28.662Z,98661.59
2022-08-24T15:11:33.498Z,98656.16
2022-08-24T15:16:53.943Z,98647.41
2022-08-24T15:22:05.526Z,98639.88
2022-08-24T15:27:29.941Z,98643.19
2022-08-24T15:32:49.239Z,98646.06
2022-08-24T15:37:56.598Z,98646.94
2022-08-24T15:43:04.255Z,98648.44
2022-08-24T15:48:09.228Z,98646.19
2022-08-24T15:53:33.664Z,98647.59
2022-08-24T15:58:41.103Z,98652.47
2022-08-24T16:03:50.234Z,98647.81
2022-08-24T16:09:03.911Z,98642.13
2022-08-24T16:14:14.231Z,98640.56
2022-08-24T16:19:27.103Z,98639.22
2022-08-24T16:24:37.816Z,98636.16
2022-08-24T16:29:56.343Z,98643.34
2022-08-24T16:35:21.690Z,98641.03
2022-08-24T16:40:31.625Z,98647.94
2022-08-24T16:45:36.690Z,98642.38
2022-08-24T16:50:41.644Z,98646.78
2022-08-24T16:55:48.990Z,98646.22
2022-08-24T17:00:53.850Z,98653.13
2022-08-24T17:06:01.151Z,98647.88
2022-08-24T17:11:08.924Z,98651.38
2022-08-24T17:16:15.473Z,98643.69
2022-08-24T17:21:20.458Z,98642.06
2022-08-24T17:26:27.829Z,98650.31
2022-08-24T17:31:33.935Z,98650.41
2022-08-24T17:36:39.169Z,98656.13
2022-08-24T17:41:47.429Z,98656.03
2022-08-24T17:46:56.382Z,98660.53
2022-08-24T17:52:01.384Z,98660.88
2022-08-24T17:57:08.828Z,98677.84
2022-08-24T18:02:15.393Z,98678.09
2022-08-24T18:07:42.276Z,98681.56
2022-08-24T18:12:50.723Z,98681.31
2022-08-24T18:17:55.891Z,98687.16
2022-08-24T18:23:02.197Z,98692.16
2022-08-24T18:28:10.529Z,98697.97
2022-08-24T18:33:15.768Z,98708.38
2022-08-24T18:38:20.525Z,98707.66
2022-08-24T18:43:28.354Z,98715.59
2022-08-24T18:48:33.057Z,98722.94
2022-08-24T18:53:38.229Z,98723.88
2022-08-24T18:58:46.500Z,98724.88
2022-08-24T19:03:51.311Z,98725.34
2022-08-24T19:08:56.325Z,98724.22
2022-08-24T19:14:03.687Z,98722.59
2022-08-24T19:19:08.340Z,98728.41
2022-08-24T19:24:13.291Z,98728.16
2022-08-24T19:29:39.018Z,98725.41
2022-08-24T19:34:45.879Z,98727.34
2022-08-24T19:39:51.192Z,98727.13
2022-08-24T19:45:11.751Z,98725.56
2022-08-24T19:50:21.217Z,98725.56
2022-08-24T19:55:26.244Z,98721.47
2022-08-24T20:00:38.690Z,98723.97
2022-08-24T20:05:43.391Z,98724.75
2022-08-24T20:10:48.177Z,98726.19
2022-08-24T20:15:56.117Z,98722.09
2022-08-24T20:21:01.289Z,98725.38
2022-08-24T20:26:09.235Z,98724.97
2022-08-24T20:31:17.511Z,98726.81
2022-08-24T20:36:27.910Z,98724.94
2022-08-24T20:41:33.716Z,98732.44
2022-08-24T20:46:46.583Z,98727.50
2022-08-24T20:51:52.647Z,98732.47
2022-08-24T20:56:57.317Z,98737.78
2022-08-24T21:02:04.868Z,98735.97
2022-08-24T21:07:12.689Z,98739.63
2022-08-24T21:12:17.522Z,98744.97
2022-08-24T21:17:26.982Z,98746.47
2022-08-24T21:22:31.513Z,98748.00
2022-08-24T21:27:38.533Z,98742.97
2022-08-24T21:32:58.368Z,98742.81
2022-08-24T21:38:03.028Z,98738.25
2022-08-24T21:43:14.911Z,98745.00
2022-08-24T21:48:25.142Z,98739.56
2022-08-24T21:53:30.577Z,98744.25
2022-08-24T21:58:35.450Z,98743.03
2022-08-24T22:03:44.849Z,98739.50
2022-08-24T22:08:49.570Z,98736.06
2022-08-24T22:13:55.424Z,98731.94
2022-08-24T22:19:04.161Z,98743.59
2022-08-24T22:24:09.227Z,98742.66
2022-08-24T22:29:15.219Z,98733.88
2022-08-24T22:34:22.671Z,98729.22
2022-08-24T22:39:28.995Z,98731.41
2022-08-24T22:44:34.989Z,98731.00
2022-08-24T22:49:44.380Z,98734.66
2022-08-24T22:54:48.967Z,98725.44
2022-08-24T22:59:53.753Z,98721.66
2022-08-24T23:05:01.031Z,98720.88
2022-08-24T23:10:08.204Z,98719.63
2022-08-24T23:15:13.148Z,98728.47
2022-08-24T23:20:20.606Z,98721.97
2022-08-24T23:25:25.328Z,98730.63
2022-08-24T23:30:29.958Z,98723.28
2022-08-24T23:35:39.296Z,98725.81
2022-08-24T23:40:44.437Z,98724.75
2022-08-24T23:45:49.051Z,98726.44
2022-08-24T23:50:56.618Z,98722.88
2022-08-24T23:56:09.817Z,98704.81
